Flight Briefing for CPX220

Departure Arrival
March Air Reserve Base (KRIV)
Click to view FAA NOTAMS
Seattle-Tacoma International Airport (KSEA)
Click to view FAA NOTAMS
Departure Time Arrival Time
N/A N/A
Aircraft Distance
B767-300BDSF 833nm
Departure METAR Arrival METAR
KRIV 260958Z AUTO 00000KT 10SM CLR 06/06 A3003 RMK AO2 SLP164 T00640064 KSEA 260953Z 19009KT 10SM -RA FEW010 BKN030 OVC038 07/04 A3004 RMK AO2 SLP178 P0002 T00670044
Suggested Route
SLI J78 LAX J1 AVE J189 LMT HAWKZ7


View recent IFR Routes data
Notes



Charts and Procedures

Charts for KRIV
No chart available
Charts for KSEA
No chart available

Windy.com Weather Map